createdAt,value
2018-07-07T00:00:25.056Z,13.77
2018-07-07T00:02:53.144Z,12.27
2018-07-07T00:05:21.464Z,9.33
2018-07-07T00:07:49.766Z,8.93
2018-07-07T00:10:18.169Z,9.37
2018-07-07T00:12:46.610Z,11.13
2018-07-07T00:15:16.722Z,8.73
2018-07-07T00:17:45.196Z,14.77
2018-07-07T00:20:13.231Z,10.10
2018-07-07T00:22:41.445Z,8.30
2018-07-07T00:25:16.523Z,9.23
2018-07-07T00:27:45.564Z,14.53
2018-07-07T00:30:13.669Z,9.23
2018-07-07T00:32:41.860Z,9.33
2018-07-07T00:35:09.920Z,8.70
2018-07-07T00:37:37.893Z,10.63
2018-07-07T00:40:06.128Z,9.60
2018-07-07T00:42:34.096Z,10.40
2018-07-07T00:45:02.030Z,10.80
2018-07-07T00:47:30.207Z,13.63
2018-07-07T00:49:58.290Z,9.77
2018-07-07T00:52:26.485Z,9.77
2018-07-07T00:54:54.792Z,9.17
2018-07-07T00:57:23.074Z,11.60
2018-07-07T00:59:51.799Z,8.10
2018-07-07T01:02:21.248Z,10.00
2018-07-07T01:04:51.165Z,9.63
2018-07-07T01:07:19.465Z,11.00
2018-07-07T01:09:47.606Z,11.80
2018-07-07T01:12:15.557Z,11.00
2018-07-07T01:14:43.522Z,14.27
2018-07-07T01:17:11.644Z,10.40
2018-07-07T01:19:39.791Z,11.43
2018-07-07T01:22:10.387Z,12.83
2018-07-07T01:24:38.448Z,11.23
2018-07-07T01:27:06.565Z,12.13
2018-07-07T01:29:34.535Z,14.53
2018-07-07T01:32:02.436Z,10.23
2018-07-07T01:34:30.405Z,13.93
2018-07-07T01:36:58.604Z,10.50
2018-07-07T01:39:26.746Z,14.20
2018-07-07T01:41:54.934Z,11.27
2018-07-07T01:44:23.208Z,14.50
2018-07-07T01:46:51.332Z,14.70
2018-07-07T01:49:19.641Z,14.57
2018-07-07T01:51:48.226Z,13.33
2018-07-07T01:54:16.216Z,13.57
2018-07-07T01:56:44.184Z,19.33
2018-07-07T01:59:12.274Z,24.23
2018-07-07T02:01:40.354Z,14.73
2018-07-07T02:04:08.300Z,14.40
2018-07-07T02:06:36.238Z,12.93
2018-07-07T02:09:04.502Z,13.03
2018-07-07T02:11:32.470Z,17.07
2018-07-07T02:14:00.389Z,13.63
2018-07-07T02:16:28.353Z,17.40
2018-07-07T02:18:56.497Z,15.37
2018-07-07T02:21:24.647Z,13.40
2018-07-07T02:23:52.808Z,15.13
2018-07-07T02:26:21.037Z,12.33
2018-07-07T02:28:50.152Z,12.90
2018-07-07T02:31:18.702Z,20.73
2018-07-07T02:33:46.688Z,15.23
2018-07-07T02:36:14.646Z,13.53
2018-07-07T02:38:42.717Z,12.40
2018-07-07T02:41:10.818Z,13.90
2018-07-07T02:43:39.220Z,20.00
2018-07-07T02:46:07.203Z,25.13
2018-07-07T02:48:35.198Z,13.60
2018-07-07T02:51:03.092Z,13.73
2018-07-07T02:53:31.083Z,17.50
2018-07-07T02:55:59.005Z,14.13
2018-07-07T02:58:27.845Z,13.57
2018-07-07T03:00:55.948Z,13.73
2018-07-07T03:03:24.127Z,15.03
2018-07-07T03:05:52.316Z,13.77
2018-07-07T03:08:20.599Z,16.43
2018-07-07T03:10:49.407Z,13.73
2018-07-07T03:13:17.430Z,14.90
2018-07-07T03:15:45.378Z,14.00
2018-07-07T03:18:13.317Z,17.80
2018-07-07T03:20:41.401Z,16.30
2018-07-07T03:23:09.436Z,11.57
2018-07-07T03:25:37.367Z,12.73
2018-07-07T03:28:05.482Z,13.53
2018-07-07T03:30:33.400Z,12.90
2018-07-07T03:33:01.342Z,11.27
2018-07-07T03:35:29.321Z,15.73
2018-07-07T03:37:57.290Z,14.20
2018-07-07T03:40:25.485Z,13.73
2018-07-07T03:42:53.720Z,13.20
2018-07-07T03:45:21.932Z,13.30
2018-07-07T03:47:50.199Z,12.70
2018-07-07T03:50:18.438Z,12.93
2018-07-07T03:52:46.457Z,15.43
2018-07-07T03:55:14.391Z,13.57
2018-07-07T03:57:42.405Z,14.60
2018-07-07T04:00:10.672Z,14.77
2018-07-07T04:02:38.774Z,13.80
2018-07-07T04:05:06.706Z,13.47
2018-07-07T04:07:34.650Z,11.80
2018-07-07T04:10:02.631Z,15.80
2018-07-07T04:12:30.586Z,13.33
2018-07-07T04:14:58.531Z,17.37
2018-07-07T04:17:26.665Z,14.33
2018-07-07T04:19:54.767Z,15.20
2018-07-07T04:22:23.041Z,12.83
2018-07-07T04:24:51.606Z,12.60
2018-07-07T04:27:19.940Z,12.73
2018-07-07T04:29:48.072Z,11.53
2018-07-07T04:32:16.044Z,12.77
2018-07-07T04:34:44.113Z,12.73
2018-07-07T04:37:12.349Z,13.73
2018-07-07T04:39:40.403Z,14.10
2018-07-07T04:42:08.440Z,11.90
2018-07-07T04:44:36.405Z,13.63
2018-07-07T04:47:04.356Z,12.80
2018-07-07T04:49:32.381Z,27.60
2018-07-07T04:52:00.452Z,14.37
2018-07-07T04:54:28.525Z,16.13
2018-07-07T04:56:56.694Z,12.73
2018-07-07T04:59:24.858Z,10.87
2018-07-07T05:01:52.952Z,12.20
2018-07-07T05:04:21.449Z,16.73
2018-07-07T05:06:49.858Z,11.33
2018-07-07T05:09:17.871Z,14.80
2018-07-07T05:11:45.880Z,14.60
2018-07-07T05:14:13.856Z,15.43
2018-07-07T05:16:41.951Z,13.63
2018-07-07T05:19:10.019Z,14.40
2018-07-07T05:21:38.062Z,14.33
2018-07-07T05:24:06.037Z,14.77
2018-07-07T05:26:34.025Z,12.93
2018-07-07T05:29:01.975Z,20.10
2018-07-07T05:31:29.911Z,13.30
2018-07-07T05:33:57.858Z,13.90
2018-07-07T05:36:25.985Z,15.77
2018-07-07T05:38:54.145Z,16.13
2018-07-07T05:41:22.465Z,17.93
2018-07-07T05:43:50.736Z,13.80
2018-07-07T05:46:18.895Z,11.90
2018-07-07T05:48:46.872Z,13.50
2018-07-07T05:51:14.833Z,13.70
2018-07-07T05:53:42.904Z,13.73
2018-07-07T05:56:10.877Z,13.27
2018-07-07T05:58:42.010Z,20.03
2018-07-07T06:01:10.229Z,14.60
2018-07-07T06:03:38.216Z,16.10
2018-07-07T06:06:06.182Z,11.93
2018-07-07T06:08:34.128Z,15.50
2018-07-07T06:11:02.092Z,15.23
2018-07-07T06:13:30.161Z,17.50
2018-07-07T06:15:58.309Z,19.93
2018-07-07T06:18:26.567Z,14.43
2018-07-07T06:20:54.586Z,18.97
2018-07-07T06:23:22.848Z,19.67
2018-07-07T06:25:51.483Z,10.80
2018-07-07T06:28:19.603Z,16.20
2018-07-07T06:30:47.734Z,17.43
2018-07-07T06:33:16.292Z,13.73
2018-07-07T06:35:44.240Z,14.10
2018-07-07T06:38:12.169Z,14.00
2018-07-07T06:40:40.364Z,22.00
2018-07-07T06:43:08.333Z,21.23
2018-07-07T06:45:36.256Z,23.93
2018-07-07T06:48:04.257Z,17.13
2018-07-07T06:50:32.176Z,14.30
2018-07-07T06:53:00.161Z,24.73
2018-07-07T06:55:28.129Z,19.20
2018-07-07T06:57:56.215Z,12.90
2018-07-07T07:00:24.320Z,16.67
2018-07-07T07:02:52.529Z,19.37
2018-07-07T07:05:20.974Z,12.83
2018-07-07T07:07:49.193Z,15.07
2018-07-07T07:10:17.196Z,14.80
2018-07-07T07:12:45.166Z,20.80
2018-07-07T07:15:13.121Z,13.47
2018-07-07T07:17:41.238Z,11.97
2018-07-07T07:20:09.381Z,16.43
2018-07-07T07:22:37.385Z,15.40
2018-07-07T07:25:05.560Z,17.43
2018-07-07T07:27:33.550Z,14.70
2018-07-07T07:30:01.496Z,14.63
2018-07-07T07:32:29.507Z,19.20
2018-07-07T07:34:57.455Z,15.20
2018-07-07T07:37:25.608Z,13.40
2018-07-07T07:39:53.988Z,17.60
2018-07-07T07:42:22.336Z,16.30
2018-07-07T07:44:50.523Z,10.60
2018-07-07T07:47:18.896Z,12.17
2018-07-07T07:49:46.929Z,12.23
2018-07-07T07:52:14.912Z,12.60
2018-07-07T07:54:42.984Z,10.10
2018-07-07T07:57:11.917Z,11.83
2018-07-07T07:59:40.116Z,10.63
2018-07-07T08:02:08.053Z,11.37
2018-07-07T08:04:36.022Z,10.07
2018-07-07T08:07:04.820Z,6.37
2018-07-07T08:09:32.783Z,10.00
2018-07-07T08:12:00.704Z,7.90
2018-07-07T08:14:28.701Z,10.30
2018-07-07T08:16:56.690Z,11.20
2018-07-07T08:19:24.893Z,7.00
2018-07-07T08:21:53.069Z,7.73
2018-07-07T08:24:21.345Z,7.17
2018-07-07T08:26:49.544Z,6.90
2018-07-07T08:29:17.561Z,5.77
2018-07-07T08:31:45.497Z,10.30
2018-07-07T08:34:13.600Z,15.60
2018-07-07T08:36:41.541Z,6.60
2018-07-07T08:39:09.469Z,13.97
2018-07-07T08:41:37.402Z,6.73
2018-07-07T08:44:05.431Z,12.60
2018-07-07T08:46:33.946Z,10.73
2018-07-07T08:49:01.919Z,5.70
2018-07-07T08:51:30.092Z,8.80
2018-07-07T08:53:58.373Z,6.80
2018-07-07T08:56:26.562Z,6.87
2018-07-07T08:58:54.846Z,8.13
2018-07-07T09:01:23.066Z,8.70
2018-07-07T09:03:51.305Z,10.40
2018-07-07T09:06:19.413Z,9.13
2018-07-07T09:08:47.440Z,9.83
2018-07-07T09:11:15.566Z,7.50
2018-07-07T09:13:43.535Z,12.70
2018-07-07T09:16:11.516Z,7.43
2018-07-07T09:18:40.067Z,8.10
2018-07-07T09:21:09.787Z,6.80
2018-07-07T09:23:37.941Z,7.20
2018-07-07T09:26:05.954Z,6.40
2018-07-07T09:28:34.029Z,8.70
2018-07-07T09:31:01.998Z,5.17
2018-07-07T09:33:30.067Z,5.43
2018-07-07T09:35:58.165Z,6.73
2018-07-07T09:38:26.237Z,9.70
2018-07-07T09:40:54.533Z,8.23
2018-07-07T09:43:23.913Z,9.83
2018-07-07T09:45:53.358Z,7.87
2018-07-07T09:48:21.713Z,11.20
2018-07-07T09:50:50.703Z,5.20
2018-07-07T09:53:21.650Z,7.63
2018-07-07T09:55:51.158Z,7.17
2018-07-07T09:58:19.642Z,6.30
2018-07-07T10:00:47.671Z,7.70
2018-07-07T10:03:15.781Z,7.67
2018-07-07T10:05:43.862Z,9.63
2018-07-07T10:08:11.825Z,9.73
2018-07-07T10:10:39.941Z,6.10
2018-07-07T10:13:07.862Z,8.83
2018-07-07T10:15:35.937Z,7.30
2018-07-07T10:18:04.384Z,4.47
2018-07-07T10:20:32.734Z,6.60
2018-07-07T10:23:00.668Z,6.10
2018-07-07T10:25:28.649Z,10.23
2018-07-07T10:27:56.838Z,11.37
2018-07-07T10:30:24.887Z,8.37
2018-07-07T10:32:53.088Z,6.87
2018-07-07T10:35:21.220Z,6.30
2018-07-07T10:37:49.507Z,5.00
2018-07-07T10:40:17.519Z,6.10
2018-07-07T10:42:45.545Z,5.77
2018-07-07T10:45:14.118Z,9.43
2018-07-07T10:47:42.148Z,8.83
2018-07-07T10:50:10.075Z,5.93
2018-07-07T10:52:38.096Z,6.63
2018-07-07T10:55:06.063Z,5.20
2018-07-07T10:57:34.000Z,9.93
2018-07-07T11:00:01.952Z,5.33
2018-07-07T11:02:29.900Z,8.37
2018-07-07T11:04:57.866Z,3.70
2018-07-07T11:07:25.956Z,7.07
2018-07-07T11:09:54.133Z,6.50
2018-07-07T11:12:22.391Z,4.40
2018-07-07T11:14:50.712Z,8.73
2018-07-07T11:17:18.858Z,5.10
2018-07-07T11:19:46.816Z,4.83
2018-07-07T11:22:14.757Z,5.93
2018-07-07T11:24:42.697Z,17.17
2018-07-07T11:27:10.624Z,7.93
2018-07-07T11:29:38.621Z,6.93
2018-07-07T11:32:06.582Z,8.97
2018-07-07T11:34:34.540Z,6.20
2018-07-07T11:37:02.579Z,7.30
2018-07-07T11:39:30.504Z,7.97
2018-07-07T11:41:58.505Z,6.90
2018-07-07T11:44:26.532Z,5.20
2018-07-07T11:46:54.715Z,5.07
2018-07-07T11:49:23.254Z,6.67
2018-07-07T11:51:51.550Z,3.20
2018-07-07T11:54:19.900Z,6.93
2018-07-07T11:56:47.958Z,6.50
2018-07-07T11:59:15.959Z,3.80
2018-07-07T12:01:43.921Z,8.63
2018-07-07T12:04:12.067Z,6.33
2018-07-07T12:06:39.997Z,8.40
2018-07-07T12:09:08.164Z,4.63
2018-07-07T12:11:36.291Z,4.80
2018-07-07T12:14:04.246Z,7.93
2018-07-07T12:16:32.179Z,6.07
2018-07-07T12:19:00.139Z,5.47
2018-07-07T12:21:28.304Z,8.67
2018-07-07T12:23:56.353Z,3.93
2018-07-07T12:26:25.638Z,5.43
2018-07-07T12:28:53.894Z,5.57
2018-07-07T12:31:22.232Z,7.07
2018-07-07T12:33:50.314Z,3.23
2018-07-07T12:36:18.426Z,5.60
2018-07-07T12:38:46.393Z,8.60
2018-07-07T12:41:14.311Z,3.83
2018-07-07T12:43:42.399Z,4.30
2018-07-07T12:46:11.178Z,4.40
2018-07-07T12:48:39.104Z,6.67
2018-07-07T12:51:07.041Z,6.27
2018-07-07T12:53:34.952Z,8.73
2018-07-07T12:56:02.889Z,5.80
2018-07-07T12:58:30.820Z,7.53
2018-07-07T13:00:58.812Z,6.00
2018-07-07T13:03:26.819Z,4.60
2018-07-07T13:05:54.993Z,5.23
2018-07-07T13:08:23.124Z,4.97
2018-07-07T13:10:51.777Z,4.90
2018-07-07T13:13:20.189Z,5.20
2018-07-07T13:15:48.254Z,6.90
2018-07-07T13:18:16.207Z,5.40
2018-07-07T13:20:44.223Z,7.17
2018-07-07T13:23:12.114Z,7.93
2018-07-07T13:25:40.243Z,11.80
2018-07-07T13:28:08.261Z,4.57
2018-07-07T13:30:36.232Z,7.63
2018-07-07T13:33:04.215Z,4.23
2018-07-07T13:35:32.141Z,5.57
2018-07-07T13:38:00.281Z,7.13
2018-07-07T13:40:28.202Z,6.63
2018-07-07T13:42:56.205Z,4.10
2018-07-07T13:45:24.766Z,6.13
2018-07-07T13:47:52.807Z,4.20
2018-07-07T13:50:21.008Z,3.43
2018-07-07T13:52:49.168Z,4.40
2018-07-07T13:55:17.269Z,4.20
2018-07-07T13:57:45.245Z,14.37
2018-07-07T14:00:13.189Z,14.37
2018-07-07T14:02:41.145Z,3.70
2018-07-07T14:05:09.325Z,6.30
2018-07-07T14:07:37.259Z,7.93
2018-07-07T14:10:05.520Z,3.53
2018-07-07T14:12:33.452Z,4.87
2018-07-07T14:15:01.605Z,6.80
2018-07-07T14:17:29.598Z,7.00
2018-07-07T14:19:57.550Z,4.93
2018-07-07T14:22:25.604Z,7.10
2018-07-07T14:24:53.749Z,6.03
2018-07-07T14:27:21.871Z,7.40
2018-07-07T14:29:50.065Z,5.13
2018-07-07T14:32:19.293Z,4.40
2018-07-07T14:34:47.465Z,8.93
2018-07-07T14:37:15.489Z,5.30
2018-07-07T14:39:49.072Z,5.80
2018-07-07T14:42:37.962Z,5.33
2018-07-07T14:45:11.780Z,4.60
2018-07-07T14:47:39.748Z,5.07
2018-07-07T14:50:07.709Z,4.13
2018-07-07T14:52:36.577Z,5.50
2018-07-07T14:55:04.628Z,5.43
2018-07-07T14:57:32.577Z,8.70
2018-07-07T15:00:00.528Z,5.37
2018-07-07T15:02:28.474Z,5.37
2018-07-07T15:04:56.578Z,4.33
2018-07-07T15:07:24.741Z,7.30
2018-07-07T15:09:53.065Z,6.67
2018-07-07T15:12:21.277Z,7.50
2018-07-07T15:14:49.615Z,6.87
2018-07-07T15:17:17.622Z,6.90
2018-07-07T15:19:45.907Z,4.73
2018-07-07T15:22:13.940Z,5.40
2018-07-07T15:24:42.113Z,5.97
2018-07-07T15:27:10.176Z,4.40
2018-07-07T15:29:38.149Z,6.93
2018-07-07T15:32:06.696Z,11.60
2018-07-07T15:34:34.669Z,7.93
2018-07-07T15:37:02.907Z,10.20
2018-07-07T15:39:30.875Z,8.03
2018-07-07T15:41:58.915Z,7.13
2018-07-07T15:44:26.989Z,11.93
2018-07-07T15:46:55.118Z,4.97
2018-07-07T15:49:23.181Z,4.47
2018-07-07T15:51:51.503Z,6.70
2018-07-07T15:54:19.859Z,4.27
2018-07-07T15:56:48.432Z,9.87
2018-07-07T15:59:16.365Z,5.77
2018-07-07T16:01:44.419Z,8.13
2018-07-07T16:04:12.478Z,5.83
2018-07-07T16:06:40.574Z,8.30
2018-07-07T16:09:09.349Z,5.90
2018-07-07T16:11:37.284Z,4.17
2018-07-07T16:14:05.241Z,3.90
2018-07-07T16:16:33.560Z,5.37
2018-07-07T16:19:01.500Z,4.97
2018-07-07T16:21:29.473Z,7.37
2018-07-07T16:23:57.414Z,5.70
2018-07-07T16:26:25.640Z,6.67
2018-07-07T16:28:54.379Z,6.00
2018-07-07T16:31:22.657Z,7.40
2018-07-07T16:33:50.868Z,6.10
2018-07-07T16:36:18.940Z,6.23
2018-07-07T16:38:47.212Z,5.77
2018-07-07T16:41:15.298Z,4.73
2018-07-07T16:43:43.388Z,9.00
2018-07-07T16:46:11.822Z,9.30
2018-07-07T16:48:39.695Z,6.13
2018-07-07T16:51:07.665Z,5.93
2018-07-07T16:53:35.759Z,4.90
2018-07-07T16:56:03.749Z,5.23
2018-07-07T16:58:31.748Z,5.10
2018-07-07T17:00:59.713Z,5.57
2018-07-07T17:03:27.761Z,3.93
2018-07-07T17:05:56.010Z,7.43
2018-07-07T17:08:24.108Z,5.60
2018-07-07T17:10:52.501Z,6.80
2018-07-07T17:13:20.726Z,3.93
2018-07-07T17:15:48.855Z,5.27
2018-07-07T17:18:16.862Z,6.73
2018-07-07T17:20:44.833Z,3.70
2018-07-07T17:23:12.900Z,6.47
2018-07-07T17:25:41.242Z,6.30
2018-07-07T17:28:09.359Z,8.50
2018-07-07T17:30:37.321Z,7.53
2018-07-07T17:33:05.365Z,6.97
2018-07-07T17:35:33.325Z,5.60
2018-07-07T17:38:01.253Z,4.63
2018-07-07T17:40:29.172Z,5.37
2018-07-07T17:42:57.161Z,6.27
2018-07-07T17:45:25.340Z,5.70
2018-07-07T17:47:53.679Z,5.70
2018-07-07T17:50:22.082Z,6.97
2018-07-07T17:52:50.539Z,5.10
2018-07-07T17:55:18.817Z,9.20
2018-07-07T17:57:46.796Z,4.73
2018-07-07T18:00:14.764Z,10.10
2018-07-07T18:02:42.884Z,9.20
2018-07-07T18:05:10.988Z,7.97
2018-07-07T18:07:38.978Z,3.93
2018-07-07T18:10:06.932Z,5.60
2018-07-07T18:12:34.866Z,4.40
2018-07-07T18:15:02.825Z,6.20
2018-07-07T18:17:30.741Z,8.60
2018-07-07T18:19:58.708Z,6.60
2018-07-07T18:22:26.626Z,6.00
2018-07-07T18:24:54.642Z,10.50
2018-07-07T18:27:22.906Z,9.97
2018-07-07T18:29:51.084Z,6.60
2018-07-07T18:32:19.300Z,4.40
2018-07-07T18:34:47.379Z,11.30
2018-07-07T18:37:15.354Z,5.53
2018-07-07T18:39:43.258Z,4.80
2018-07-07T18:42:11.367Z,6.07
2018-07-07T18:44:39.303Z,8.20
2018-07-07T18:47:07.265Z,5.60
2018-07-07T18:49:35.189Z,7.93
2018-07-07T18:52:03.153Z,7.83
2018-07-07T18:54:31.077Z,6.83
2018-07-07T18:56:59.022Z,6.40
2018-07-07T18:59:27.077Z,8.03
2018-07-07T19:01:55.144Z,7.10
2018-07-07T19:04:23.203Z,6.07
2018-07-07T19:06:51.305Z,8.33
2018-07-07T19:09:19.455Z,10.87
2018-07-07T19:11:47.387Z,6.40
2018-07-07T19:14:15.422Z,8.80
2018-07-07T19:16:43.353Z,8.07
2018-07-07T19:19:11.507Z,5.93
2018-07-07T19:21:44.809Z,10.23
2018-07-07T19:24:18.169Z,8.43
2018-07-07T19:26:50.151Z,9.37
2018-07-07T19:29:18.278Z,10.87
2018-07-07T19:31:51.653Z,10.80
2018-07-07T19:34:25.112Z,8.27
2018-07-07T19:36:58.517Z,9.70
2018-07-07T19:39:26.684Z,10.23
2018-07-07T19:41:54.772Z,12.10
2018-07-07T19:44:23.282Z,9.33
2018-07-07T19:46:51.391Z,15.10
2018-07-07T19:49:19.580Z,11.17
2018-07-07T19:51:47.549Z,13.33
2018-07-07T19:54:15.566Z,13.77
2018-07-07T19:56:43.900Z,12.23
2018-07-07T19:59:12.024Z,10.30
2018-07-07T20:01:40.163Z,11.00
2018-07-07T20:04:08.254Z,11.03
2018-07-07T20:06:36.345Z,11.93
2018-07-07T20:09:04.318Z,12.43
2018-07-07T20:11:32.222Z,8.87
2018-07-07T20:14:00.156Z,10.77
2018-07-07T20:16:33.918Z,8.60
2018-07-07T20:19:11.751Z,7.00
2018-07-07T20:21:49.444Z,10.43
2018-07-07T20:24:19.542Z,12.90
2018-07-07T20:26:52.862Z,11.80
2018-07-07T20:29:21.036Z,14.43
2018-07-07T20:31:50.345Z,13.10
2018-07-07T20:34:20.048Z,10.33
2018-07-07T20:36:48.425Z,10.67
2018-07-07T20:39:16.441Z,11.00
2018-07-07T20:41:44.744Z,9.30
2018-07-07T20:44:12.931Z,9.50
2018-07-07T20:46:40.997Z,12.07
2018-07-07T20:49:09.465Z,9.60
2018-07-07T20:51:38.254Z,10.33
2018-07-07T20:54:06.289Z,9.73
2018-07-07T20:56:34.876Z,11.37
2018-07-07T20:59:02.925Z,13.10
2018-07-07T21:01:30.908Z,14.00
2018-07-07T21:03:59.545Z,11.10
2018-07-07T21:06:28.124Z,12.53
2018-07-07T21:08:57.025Z,11.27
2018-07-07T21:11:25.797Z,10.70
2018-07-07T21:13:54.037Z,13.13
2018-07-07T21:16:22.535Z,13.57
2018-07-07T21:18:50.934Z,10.73
2018-07-07T21:21:19.177Z,9.80
2018-07-07T21:23:48.484Z,14.23
2018-07-07T21:26:16.641Z,11.83
2018-07-07T21:28:44.826Z,14.23
2018-07-07T21:31:13.313Z,10.73
2018-07-07T21:33:41.328Z,10.03
2018-07-07T21:36:10.086Z,12.20
2018-07-07T21:38:38.144Z,11.80
2018-07-07T21:41:06.128Z,13.37
2018-07-07T21:43:34.259Z,10.27
2018-07-07T21:46:02.667Z,13.33
2018-07-07T21:48:30.746Z,10.00
2018-07-07T21:50:59.106Z,11.13
2018-07-07T21:53:27.415Z,9.60
2018-07-07T21:55:55.827Z,16.87
2018-07-07T21:58:26.205Z,9.30
2018-07-07T22:01:05.289Z,11.73
2018-07-07T22:03:38.759Z,10.70
2018-07-07T22:06:07.303Z,17.90
2018-07-07T22:08:35.801Z,14.80
2018-07-07T22:11:04.103Z,22.57
2018-07-07T22:13:32.177Z,9.80
2018-07-07T22:16:00.227Z,10.53
2018-07-07T22:18:28.769Z,15.47
2018-07-07T22:21:02.352Z,21.27
2018-07-07T22:23:30.629Z,19.37
2018-07-07T22:25:58.651Z,12.50
2018-07-07T22:28:27.014Z,18.17
2018-07-07T22:30:55.242Z,11.90
2018-07-07T22:33:24.917Z,15.97
2018-07-07T22:35:58.840Z,18.07
2018-07-07T22:38:32.400Z,12.00
2018-07-07T22:41:01.139Z,13.00
2018-07-07T22:43:30.237Z,11.10
2018-07-07T22:46:00.578Z,15.00
2018-07-07T22:48:29.244Z,13.90
2018-07-07T22:50:57.316Z,11.03
2018-07-07T22:53:25.759Z,22.93
2018-07-07T22:55:53.965Z,14.63
2018-07-07T22:58:22.315Z,14.83
2018-07-07T23:00:50.529Z,12.60
2018-07-07T23:03:18.793Z,12.17
2018-07-07T23:05:47.077Z,14.73
2018-07-07T23:08:15.490Z,12.73
2018-07-07T23:10:43.826Z,15.20
2018-07-07T23:13:11.976Z,14.87
2018-07-07T23:15:40.116Z,17.23
2018-07-07T23:18:08.174Z,24.63
2018-07-07T23:20:36.127Z,16.47
2018-07-07T23:23:04.103Z,15.43
2018-07-07T23:25:32.624Z,16.60
2018-07-07T23:28:00.565Z,14.63
2018-07-07T23:30:28.637Z,12.67
2018-07-07T23:32:57.189Z,15.63
2018-07-07T23:35:25.502Z,22.13
2018-07-07T23:37:53.732Z,15.53
2018-07-07T23:40:22.270Z,13.30
2018-07-07T23:42:50.717Z,12.53
2018-07-07T23:45:19.379Z,15.43
2018-07-07T23:47:47.422Z,14.40
2018-07-07T23:50:15.689Z,12.80
2018-07-07T23:52:43.730Z,14.10
2018-07-07T23:55:11.701Z,15.90
2018-07-07T23:57:39.737Z,15.70
